Clifford Maersk — OYRO2 — position and weather

sailwx.info

Track history (hours):
 
Tides and Currents Weather Stations Pressure Air Temp Water Temp Dewpoint Dewpoint Depression Visibility Wind Speed Wind Dir Waves Ship Positions

Clifford Maersk

Last reported at 2016-Sep-29 16:13 UTC. Time now 2016-Sep-29 17:02 UTC.
Position N 28°34' W 119°16'.

Type: Ship (hazmat cat B). MMSI: 219840000.

Date/timePositionNaut miles runAvg speedWind from/ knotsBaromVisibWave heightAir tempDewpointWater temp
2016-Sep-29 16:13N 28°34' W 119°16'1320.1
2016-Sep-29 15:33N 28°42' W 119°28'4020.1
2016-Sep-29 13:33N 29°08' W 120°04'10020.0
2016-Sep-29 08:34N 30°11' W 121°33'2119.9
2016-Sep-29 07:30N 30°24' W 121°52'13920.1
2016-Sep-29 00:33N 31°52' W 123°59'6420.4
2016-Sep-28 21:26N 32°30' W 124°59'3820.1
2016-Sep-28 19:33N 32°53' W 125°35'5517.4
2016-Sep-28 16:23N 33°27' W 126°27'15519.6
2016-Sep-28 08:29N 34°57' W 128°58'  
Track history (hours):
 
Tides and Currents Weather Stations Pressure Air Temp Water Temp Dewpoint Dewpoint Depression Visibility Wind Speed Wind Dir Waves Ship Positions

Clifford Maersk

Last reported at 2016-Sep-29 16:13 UTC. Time now 2016-Sep-29 17:02 UTC.
Position N 28°34' W 119°16'.

Type: Ship (hazmat cat B). MMSI: 219840000.

Date/timePositionNaut miles runAvg speedWind from/ knotsBaromVisibWave heightAir tempDewpointWater temp
2016-Sep-29 16:13N 28°34' W 119°16'1320.1
2016-Sep-29 15:33N 28°42' W 119°28'4020.1
2016-Sep-29 13:33N 29°08' W 120°04'10020.0
2016-Sep-29 08:34N 30°11' W 121°33'2119.9
2016-Sep-29 07:30N 30°24' W 121°52'13920.1
2016-Sep-29 00:33N 31°52' W 123°59'6420.4
2016-Sep-28 21:26N 32°30' W 124°59'3820.1
2016-Sep-28 19:33N 32°53' W 125°35'5517.4
2016-Sep-28 16:23N 33°27' W 126°27'15519.6
2016-Sep-28 08:29N 34°57' W 128°58'  

Dump ship's entire track history